Estación Meteorológica Peña el Pijo (Robertgarden) [ 02/03/23 04:14:15 CET ]

Fecha Hora Presion(HPa) Temp (°C) Humedad % Rocio (°C) Viento ( m/s) Direccion Lluvia 1Hora(mm) Lluvia 24H(mm) LLuvia Total(mm)
2010-Apr-21 01:01:17 1011.500 7.4 88 5.6         111.88
2010-Apr-21 02:01:17 1011.300 6.9 89 5.2         111.88
2010-Apr-21 03:03:17 1010.500 6.1 89 4.4         111.88
2010-Apr-21 04:01:14 1010.100 6.1 90 4.6         111.88
2010-Apr-21 05:01:14 1009.600 5.4 91 4.0         111.88
2010-Apr-21 06:01:13 1009.500 5.2 91 3.9         111.88
2010-Apr-21 07:01:17 1008.800 5.1 92 3.9         111.88
2010-Apr-21 08:01:16 1009.200 5.1 93 4.0         111.88
2010-Apr-21 09:01:16 1009.100 8.1 93 7.0         111.88
2010-Apr-21 10:01:13 1008.700 12.1 82 9.1         111.88
2010-Apr-21 11:01:13 1008.100 17.6 47 6.1         111.88
2010-Apr-21 12:01:13 1008.300 20.4 36 4.7         111.88
2010-Apr-21 13:01:16 1007.900 21.1 37 5.8 2.9 NW     111.88
2010-Apr-21 14:01:16 1007.400 21.6 36 5.8         111.88
2010-Apr-21 15:01:16 1007.300 22.8 33 5.6         111.88
2010-Apr-21 16:01:13 1006.200 23.9 32 6.2         111.88
2010-Apr-21 17:01:11 1005.500 22.8 34 6.0         111.88
2010-Apr-21 18:01:13 1006.500 18.9 50 8.3 1.0 ENE     111.88
2010-Apr-21 19:01:17 1006.500 17.8 56 8.8         111.88
2010-Apr-21 20:01:17 1006.400 15.9 58 7.7         111.88
2010-Apr-21 21:01:11 1005.900 14.9 64 8.1         111.88
2010-Apr-21 22:01:14 1006.600 13.7 74 9.1         111.88
2010-Apr-21 23:01:17 1006.900 12.9 77 8.9         111.88

Temperatura Máxima:23°    Temperatura Mínima:
Presión Máxima:1011.500 Hpa    Presión Mínima:1005.500 Hpa


Volver